^^
LKKV - Karlovy Vary, Czech Republic
Entfernung von Station: O 36km
Aktualisierung: 27.04.2017 09:00
Nebel, stark bewölkt
Nebel, stark bewölkt
 Wind von veränderlich
Wind: veränderlich 4 km/h
Temperatur: 2°C
Taupunkt: 2°C
Luftfeuchte: 100%
Luftdruck: 1012 hPa
Zusammenfassung: Nebel
Wolken: stark bewölkt
Sicht: 5 km
Wolken Details: wolkig 91 m
stark bewölkt 701 m
2017/04/27 07:00 LKKV 270700Z VRB02KT 5000 2300N BR SCT003 BKN023 02/02 Q1012
EDQM - Hof, Germany
Entfernung von Station: W 40km
Aktualisierung: 27.04.2017 08:50
wolkig
wolkig
 Wind von N
Wind: N 6 km/h
Temperatur: 2°C
Taupunkt: 0°C
Luftfeuchte: 87%
Luftdruck: 1013 hPa
Wolken: wolkig
Sicht: 7 km
2017/04/27 06:50 EDQM 270650Z 35003KT 300V010 7000 NSC 02/M00 Q1013
 
ETIC - Grafenwoehr, Germany
Entfernung von Station: SSW 72km
Aktualisierung: 27.04.2017 08:59
teils wolkig
teils wolkig
 Wind von calm
Wind: Windstill
Temperatur: 4°C
Taupunkt: 3°C
Luftfeuchte: 93%
Luftdruck: 1012.9 hPa
Wolken: teils wolkig
Sicht: 10 km
Wolken Details: teils wolkig 640 m
2017/04/27 06:59 ETIC 270659Z AUTO 00000KT 9999 FEW021 04/03 A2991 RMK AO2 UPB16E17DZB17E45 SLP145 P0000 T00360030 $
EDAC - Altenburg-Nobitz, Germany
Entfernung von Station: N 80km
Aktualisierung: 25.04.2017 19:20
nicht aktuell
Klar
Klar
 Wind von SW
Wind: SW 13 km/h
Temperatur: 8°C
Windkühle: 6°C
Taupunkt: 8°C
Luftfeuchte: 100%
Luftdruck: 1007 hPa
Zusammenfassung: Klar
Sicht: mehr als 10 km
2017/04/25 17:20 EDAC 251720Z 23007KT CAVOK 08/08 Q1007
 
LKLN - Plzen Line, Czech Republic
Entfernung von Station: SO 88km
Aktualisierung: 27.04.2017 09:00
Bedeckt
Bedeckt
 Wind von NNO
Wind: NNO 7 km/h
Temperatur: 5°C
Windkühle: 3°C
Taupunkt: 4°C
Luftfeuchte: 93%
Luftdruck: 1013 hPa
Wolken: Bedeckt
Sicht: 6 km
Wolken Details: stark bewölkt 2073 m
Bedeckt 2499 m
2017/04/27 07:00 LKLN 270700Z AUTO 03004KT 340V080 6000 BKN068 OVC082 05/04 Q1013
ETIH - Hohenfels (usa-A, Germany
Entfernung von Station: SSW 124km
Aktualisierung: 27.04.2017 08:59
leichter Regen, Nebel, Bedeckt
leichter Regen, Nebel, Bedeckt
 Wind von veränderlich
Wind: veränderlich 6 km/h
Temperatur: 3°C
Taupunkt: 3°C
Luftfeuchte: 100%
Luftdruck: 1013.2 hPa
Zusammenfassung: leichter Regen, Nebel
Wolken: Bedeckt
Sicht: 9 km
Wolken Details: stark bewölkt 213 m
stark bewölkt 366 m
Bedeckt 579 m
2017/04/27 06:59 ETIH 270659Z AUTO VRB03KT 9000 -RA BR BKN007 BKN012 OVC019 03/03 A2992 RMK AO2 CIG 007V015 BKN007 V SCT SLP149
 
EDDE - Erfurt/Bindersleben, Germany
Entfernung von Station: NW 129km
Aktualisierung: 27.04.2017 08:50
Klar
Klar
 Wind von SSW
Wind: SSW 7 km/h
Temperatur: 4°C
Windkühle: 2°C
Taupunkt: 1°C
Luftfeuchte: 81%
Luftdruck: 1014 hPa
Zusammenfassung: Klar
Sicht: mehr als 10 km
2017/04/27 06:50 EDDE 270650Z 20004KT CAVOK 04/01 Q1014 NOSIG
EDDP - Leipzig/Schkeudidtz, Germany
Entfernung von Station: N 129km
Aktualisierung: 27.04.2017 08:50
Klar
Klar
 Wind von NNW
Wind: NNW 7 km/h
Temperatur: 4°C
Windkühle: 2°C
Taupunkt: 1°C
Luftfeuchte: 81%
Luftdruck: 1014 hPa
Zusammenfassung: Klar
Sicht: mehr als 10 km
2017/04/27 06:50 EDDP 270650Z 33004KT CAVOK 04/01 Q1014 NOSIG
 
EDDN - Nuernberg, Germany
Entfernung von Station: SW 130km
Aktualisierung: 27.04.2017 08:50
leichter Regen, stark bewölkt
leichter Regen, stark bewölkt
 Wind von veränderlich
Wind: veränderlich 4 km/h
Temperatur: 5°C
Taupunkt: 4°C
Luftfeuchte: 93%
Luftdruck: 1014 hPa
Zusammenfassung: Nieselregen
Wolken: stark bewölkt
Sicht: 8 km
Wolken Details: stark bewölkt 183 m
stark bewölkt 1097 m
2017/04/27 06:50 EDDN 270650Z VRB02KT 8000 -RA BKN006 BKN036 05/04 Q1014 BECMG SCT005 BKN020
LKPR - Prague/Ruzyne, Czech Republic
Entfernung von Station: O 133km
Aktualisierung: 27.04.2017 09:00
Klar
Klar
 Wind von NW
Wind: NW 13 km/h
Temperatur: 5°C
Windkühle: 2°C
Taupunkt: 1°C
Luftfeuchte: 76%
Luftdruck: 1013 hPa
Zusammenfassung: Klar
Sicht: mehr als 10 km
2017/04/27 07:00 LKPR 270700Z 32007KT CAVOK 05/01 Q1013 NOSIG
 
EDDC - Dresden/Klotzsche, Germany
Entfernung von Station: NO 134km
Aktualisierung: 27.04.2017 08:50
Klar
Klar
 Wind von WSW
Wind: WSW 7 km/h
Temperatur: 5°C
Windkühle: 3°C
Taupunkt: 2°C
Luftfeuchte: 81%
Luftdruck: 1014 hPa
Zusammenfassung: Klar
Sicht: mehr als 10 km
2017/04/27 06:50 EDDC 270650Z 24004KT 220V280 CAVOK 05/02 Q1014 NOSIG
Besucherstatistik
Besucher gesamt: 586.624
Besucher heute: 575
Besucher gestern: 1.648
Besucher pro Tag: 783,95
gerade online: 20
max. online: 156
Seitenaufrufe diese Seite: 1.943
counter Statistiken